Hudson Bay, Canada
Current Conditions -  °F | °C
As of 3:48 PM on Thursday 23 Oct 2014 (Local Time) from CYBU Reporting Station
Scattered Clouds Scattered Clouds  
Wind Chill: 50°   Ceiling: Unl
Heat Index: 50°   Visibility: 9mi
Dew Point: 46°   Wind: 9mph
Humidity: 87%   Direction: 100°E
Pressure: 29.59"   Gusts: NA
Location:  52.86°N, 102.39°W
Report Text: CYBU 232148Z AUTO 10008KT 9SM SCT011 10/08 A2959 RMK SLP031
Loading
Personal Weather Stations






























Interactive Weather Map
Tropical Storm Tracking
New forecast layout! Learn more

10-Day Weather Forecast

Advertisements
Track Severe Weather on mobile